createdAt,value
2023-04-30T00:01:26.621Z,13.63
2023-04-30T00:03:53.313Z,13.65
2023-04-30T00:06:20.084Z,13.67
2023-04-30T00:08:46.696Z,13.65
2023-04-30T00:11:13.279Z,13.67
2023-04-30T00:13:39.922Z,13.69
2023-04-30T00:16:06.714Z,13.68
2023-04-30T00:18:33.349Z,13.65
2023-04-30T00:20:59.934Z,13.59
2023-04-30T00:23:26.475Z,13.59
2023-04-30T00:25:53.060Z,13.59
2023-04-30T00:28:19.696Z,13.59
2023-04-30T00:30:46.666Z,13.63
2023-04-30T00:33:13.388Z,13.64
2023-04-30T00:35:40.063Z,13.62
2023-04-30T00:38:06.781Z,13.57
2023-04-30T00:40:37.780Z,13.57
2023-04-30T00:43:04.491Z,13.55
2023-04-30T00:45:31.359Z,13.60
2023-04-30T00:47:58.132Z,13.65
2023-04-30T00:50:25.192Z,13.59
2023-04-30T00:52:52.081Z,13.55
2023-04-30T00:55:18.908Z,13.52
2023-04-30T00:57:49.533Z,13.46
2023-04-30T01:00:16.344Z,13.42
2023-04-30T01:02:44.215Z,13.39
2023-04-30T01:05:13.521Z,13.34
2023-04-30T01:07:45.248Z,13.31
2023-04-30T01:10:14.385Z,13.30
2023-04-30T01:12:47.035Z,13.31
2023-04-30T01:15:25.716Z,13.38
2023-04-30T01:18:07.907Z,13.35
2023-04-30T01:20:37.673Z,13.35
2023-04-30T01:23:41.104Z,13.41
2023-04-30T01:26:35.756Z,13.45
2023-04-30T01:29:04.533Z,13.43
2023-04-30T01:31:31.459Z,13.45
2023-04-30T01:33:58.128Z,13.43
2023-04-30T01:37:02.021Z,13.43
2023-04-30T01:39:37.233Z,13.45
2023-04-30T01:42:32.579Z,13.45
2023-04-30T01:45:15.800Z,13.42
2023-04-30T01:47:45.235Z,13.43
2023-04-30T01:50:28.667Z,13.43
2023-04-30T01:52:59.787Z,13.51
2023-04-30T01:55:43.572Z,13.52
2023-04-30T01:58:13.609Z,13.55
2023-04-30T02:00:40.182Z,13.56
2023-04-30T02:03:07.538Z,13.53
2023-04-30T02:05:34.330Z,13.49
2023-04-30T02:08:00.961Z,13.50
2023-04-30T02:10:29.543Z,13.48
2023-04-30T02:12:56.160Z,13.40
2023-04-30T02:15:22.850Z,13.43
2023-04-30T02:17:49.607Z,13.40
2023-04-30T02:20:16.272Z,13.44
2023-04-30T02:22:43.083Z,13.43
2023-04-30T02:25:11.452Z,13.40
2023-04-30T02:27:38.182Z,13.42
2023-04-30T02:30:05.391Z,13.45
2023-04-30T02:32:32.095Z,13.42
2023-04-30T02:34:58.754Z,13.34
2023-04-30T02:37:25.581Z,13.36
2023-04-30T02:39:53.079Z,13.34
2023-04-30T02:42:19.829Z,13.34
2023-04-30T02:44:48.657Z,13.39
2023-04-30T02:47:15.299Z,13.31
2023-04-30T02:49:41.909Z,13.27
2023-04-30T02:52:10.132Z,13.23
2023-04-30T02:54:37.012Z,13.24
2023-04-30T02:57:03.872Z,13.26
2023-04-30T02:59:30.743Z,13.30
2023-04-30T03:01:57.421Z,13.33
2023-04-30T03:04:24.089Z,13.30
2023-04-30T03:06:50.889Z,13.28
2023-04-30T03:09:18.122Z,13.26
2023-04-30T03:11:44.755Z,13.24
2023-04-30T03:14:11.433Z,13.24
2023-04-30T03:16:38.233Z,13.22
2023-04-30T03:19:04.998Z,13.20
2023-04-30T03:21:31.607Z,13.21
2023-04-30T03:23:58.217Z,13.20
2023-04-30T03:26:24.989Z,13.19
2023-04-30T03:28:55.870Z,13.22
2023-04-30T03:31:22.712Z,13.19
2023-04-30T03:33:49.450Z,13.17
2023-04-30T03:36:16.166Z,13.18
2023-04-30T03:38:43.042Z,13.18
2023-04-30T03:41:09.766Z,13.18
2023-04-30T03:43:37.552Z,13.14
2023-04-30T03:46:06.930Z,13.12
2023-04-30T03:48:33.597Z,13.10
2023-04-30T03:51:00.299Z,13.08
2023-04-30T03:53:27.402Z,13.12
2023-04-30T03:55:54.961Z,13.11
2023-04-30T03:58:22.530Z,13.09
2023-04-30T04:00:49.751Z,13.07
2023-04-30T04:03:16.967Z,13.05
2023-04-30T04:05:43.774Z,13.07
2023-04-30T04:08:10.670Z,13.02
2023-04-30T04:10:37.487Z,13.06
2023-04-30T04:13:04.257Z,13.00
2023-04-30T04:15:31.047Z,12.95
2023-04-30T04:17:57.734Z,12.94
2023-04-30T04:20:24.361Z,12.85
2023-04-30T04:22:53.211Z,12.84
2023-04-30T04:25:20.631Z,12.79
2023-04-30T04:27:47.197Z,12.71
2023-04-30T04:30:14.116Z,12.69
2023-04-30T04:32:48.237Z,12.68
2023-04-30T04:35:16.167Z,12.71
2023-04-30T04:37:42.753Z,12.64
2023-04-30T04:40:10.879Z,12.66
2023-04-30T04:42:38.506Z,12.60
2023-04-30T04:45:07.968Z,12.64
2023-04-30T04:47:34.695Z,12.68
2023-04-30T04:50:01.381Z,12.68
2023-04-30T04:52:28.053Z,12.68
2023-04-30T04:54:54.735Z,12.58
2023-04-30T04:57:21.402Z,12.56
2023-04-30T04:59:48.132Z,12.55
2023-04-30T05:02:17.457Z,12.58
2023-04-30T05:04:44.274Z,12.60
2023-04-30T05:07:10.896Z,12.57
2023-04-30T05:09:37.497Z,12.54
2023-04-30T05:12:04.388Z,12.53
2023-04-30T05:14:31.111Z,12.54
2023-04-30T05:16:57.755Z,12.56
2023-04-30T05:19:24.470Z,12.58
2023-04-30T05:21:51.451Z,12.58
2023-04-30T05:24:18.130Z,12.56
2023-04-30T05:26:44.743Z,12.47
2023-04-30T05:29:12.237Z,12.51
2023-04-30T05:31:39.014Z,12.56
2023-04-30T05:34:06.042Z,12.48
2023-04-30T05:36:32.706Z,12.41
2023-04-30T05:38:59.357Z,12.45
2023-04-30T05:41:26.351Z,12.39
2023-04-30T05:43:58.806Z,12.44
2023-04-30T05:46:25.554Z,12.41
2023-04-30T05:48:52.293Z,12.43
2023-04-30T05:51:18.957Z,12.43
2023-04-30T05:53:45.634Z,12.44
2023-04-30T05:56:12.729Z,12.50
2023-04-30T05:58:39.597Z,12.49
2023-04-30T06:01:06.585Z,12.49
2023-04-30T06:03:33.547Z,12.50
2023-04-30T06:06:00.271Z,12.48
2023-04-30T06:08:27.039Z,12.54
2023-04-30T06:10:53.693Z,12.46
2023-04-30T06:13:20.418Z,12.54
2023-04-30T06:15:47.077Z,12.45
2023-04-30T06:18:14.434Z,12.45
2023-04-30T06:20:41.245Z,12.36
2023-04-30T06:23:09.157Z,12.33
2023-04-30T06:25:36.131Z,12.33
2023-04-30T06:28:02.725Z,12.33
2023-04-30T06:30:31.564Z,12.34
2023-04-30T06:32:58.351Z,12.32
2023-04-30T06:35:25.023Z,12.29
2023-04-30T06:37:51.653Z,12.31
2023-04-30T06:40:18.311Z,12.25
2023-04-30T06:42:46.867Z,12.21
2023-04-30T06:45:15.380Z,12.26
2023-04-30T06:47:42.928Z,12.22
2023-04-30T06:50:09.965Z,12.24
2023-04-30T06:52:38.496Z,12.20
2023-04-30T06:55:05.862Z,12.25
2023-04-30T06:57:32.534Z,12.19
2023-04-30T07:00:01.220Z,12.22
2023-04-30T07:02:28.031Z,12.23
2023-04-30T07:04:54.919Z,12.08
2023-04-30T07:07:21.681Z,12.19
2023-04-30T07:09:49.667Z,12.14
2023-04-30T07:12:18.162Z,12.10
2023-04-30T07:14:44.906Z,12.08
2023-04-30T07:17:14.295Z,12.01
2023-04-30T07:19:41.143Z,12.05
2023-04-30T07:22:07.783Z,12.12
2023-04-30T07:24:34.406Z,12.15
2023-04-30T07:27:03.641Z,12.22
2023-04-30T07:29:30.739Z,12.31
2023-04-30T07:31:57.505Z,12.44
2023-04-30T07:34:27.494Z,12.55
2023-04-30T07:36:54.535Z,12.62
2023-04-30T07:39:21.174Z,12.64
2023-04-30T07:41:47.811Z,12.69
2023-04-30T07:44:14.487Z,12.70
2023-04-30T07:46:44.178Z,12.73
2023-04-30T07:49:10.865Z,12.81
2023-04-30T07:51:37.506Z,12.82
2023-04-30T07:54:04.965Z,12.92
2023-04-30T07:56:34.095Z,12.97
2023-04-30T07:59:00.762Z,12.95
2023-04-30T08:01:27.426Z,13.04
2023-04-30T08:03:54.230Z,13.09
2023-04-30T08:06:21.180Z,13.01
2023-04-30T08:08:48.838Z,13.11
2023-04-30T08:11:16.324Z,13.09
2023-04-30T08:13:43.069Z,13.13
2023-04-30T08:16:09.709Z,13.25
2023-04-30T08:18:38.801Z,13.26
2023-04-30T08:21:06.526Z,13.25
2023-04-30T08:23:33.189Z,13.28
2023-04-30T08:25:59.870Z,13.32
2023-04-30T08:28:26.822Z,13.39
2023-04-30T08:30:53.492Z,13.42
2023-04-30T08:33:20.192Z,13.44
2023-04-30T08:35:46.891Z,13.48
2023-04-30T08:38:13.801Z,13.51
2023-04-30T08:43:12.028Z,13.57
2023-04-30T08:45:38.952Z,13.63
2023-04-30T08:48:11.626Z,13.69
2023-04-30T08:50:38.343Z,13.57
2023-04-30T08:53:05.000Z,13.55
2023-04-30T08:55:34.354Z,13.68
2023-04-30T08:58:00.961Z,13.57
2023-04-30T09:00:27.931Z,13.59
2023-04-30T09:02:54.766Z,13.54
2023-04-30T09:05:21.404Z,13.49
2023-04-30T09:08:01.536Z,13.55
2023-04-30T09:10:32.817Z,13.67
2023-04-30T09:13:09.691Z,13.72
2023-04-30T09:15:45.980Z,13.77
2023-04-30T09:18:18.668Z,13.85
2023-04-30T09:21:03.104Z,13.97
2023-04-30T09:23:31.943Z,14.13
2023-04-30T09:25:58.548Z,14.17
2023-04-30T09:28:29.593Z,14.32
2023-04-30T09:30:57.749Z,14.48
2023-04-30T09:33:24.448Z,14.64
2023-04-30T09:35:54.100Z,14.78
2023-04-30T09:38:32.009Z,14.89
2023-04-30T09:41:02.346Z,14.92
2023-04-30T09:43:31.716Z,14.88
2023-04-30T09:45:59.938Z,14.89
2023-04-30T09:48:28.510Z,15.04
2023-04-30T09:50:55.549Z,15.03
2023-04-30T09:53:23.817Z,15.11
2023-04-30T09:55:58.406Z,15.06
2023-04-30T09:58:28.647Z,15.27
2023-04-30T10:00:57.211Z,15.34
2023-04-30T10:03:24.329Z,15.35
2023-04-30T10:05:53.222Z,15.48
2023-04-30T10:08:26.980Z,15.58
2023-04-30T10:11:03.839Z,15.65
2023-04-30T10:14:14.744Z,15.62
2023-04-30T10:16:49.359Z,15.73
2023-04-30T10:19:19.643Z,15.77
2023-04-30T10:21:49.081Z,15.73
2023-04-30T10:24:20.074Z,15.70
2023-04-30T10:26:48.451Z,15.73
2023-04-30T10:29:17.708Z,15.67
2023-04-30T10:31:47.745Z,15.78
2023-04-30T10:34:17.973Z,15.82
2023-04-30T10:37:00.483Z,15.88
2023-04-30T10:39:28.941Z,15.88
2023-04-30T10:42:07.046Z,15.94
2023-04-30T10:44:36.512Z,15.97
2023-04-30T10:47:05.789Z,16.04
2023-04-30T10:49:33.004Z,16.06
2023-04-30T10:52:01.486Z,16.05
2023-04-30T10:54:31.082Z,16.06
2023-04-30T10:57:17.625Z,16.06
2023-04-30T10:59:52.683Z,16.03
2023-04-30T11:02:19.851Z,16.10
2023-04-30T11:05:08.245Z,16.09
2023-04-30T11:07:35.279Z,16.12
2023-04-30T11:10:02.665Z,16.11
2023-04-30T11:12:33.781Z,16.25
2023-04-30T11:15:13.286Z,16.35
2023-04-30T11:17:40.236Z,16.35
2023-04-30T11:20:12.404Z,16.20
2023-04-30T11:22:39.409Z,16.24
2023-04-30T11:25:09.671Z,16.36
2023-04-30T11:27:38.557Z,16.47
2023-04-30T11:30:19.335Z,16.31
2023-04-30T11:32:48.227Z,16.25
2023-04-30T11:35:19.064Z,16.31
2023-04-30T11:37:46.265Z,16.40
2023-04-30T11:40:14.256Z,16.39
2023-04-30T11:42:47.075Z,16.33
2023-04-30T11:45:18.156Z,16.32
2023-04-30T11:47:46.986Z,16.25
2023-04-30T11:50:15.587Z,16.13
2023-04-30T11:52:43.482Z,16.14
2023-04-30T11:55:16.915Z,16.19
2023-04-30T11:57:45.153Z,16.18
2023-04-30T12:00:12.975Z,16.05
2023-04-30T12:02:40.360Z,16.06
2023-04-30T12:05:18.447Z,16.03
2023-04-30T12:07:47.239Z,16.10
2023-04-30T12:10:13.962Z,16.09
2023-04-30T12:12:41.000Z,16.07
2023-04-30T12:15:23.425Z,15.87
2023-04-30T12:17:50.154Z,15.88
2023-04-30T12:20:17.108Z,15.72
2023-04-30T12:22:48.768Z,15.71
2023-04-30T12:25:19.888Z,15.43
2023-04-30T12:27:51.468Z,15.33
2023-04-30T12:30:29.371Z,15.34
2023-04-30T12:33:00.546Z,15.18
2023-04-30T12:35:29.755Z,15.15
2023-04-30T12:38:05.088Z,15.26
2023-04-30T12:40:32.347Z,15.29
2023-04-30T12:43:07.238Z,15.29
2023-04-30T12:45:46.655Z,15.36
2023-04-30T12:48:14.827Z,15.41
2023-04-30T12:50:41.991Z,15.43
2023-04-30T12:53:11.037Z,15.50
2023-04-30T12:55:39.413Z,15.51
2023-04-30T12:58:15.122Z,15.39
2023-04-30T13:00:53.009Z,15.31
2023-04-30T13:03:21.618Z,15.21
2023-04-30T13:05:54.833Z,15.17
2023-04-30T13:08:21.844Z,15.13
2023-04-30T13:10:48.778Z,15.11
2023-04-30T13:13:20.569Z,15.22
2023-04-30T13:15:48.267Z,15.21
2023-04-30T13:18:17.817Z,15.22
2023-04-30T13:20:44.745Z,15.27
2023-04-30T13:23:14.727Z,15.34
2023-04-30T13:25:45.640Z,15.36
2023-04-30T13:28:12.654Z,15.36
2023-04-30T13:30:42.070Z,15.38
2023-04-30T13:33:09.064Z,15.39
2023-04-30T13:35:38.182Z,15.38
2023-04-30T13:38:08.776Z,15.30
2023-04-30T13:40:35.387Z,15.30
2023-04-30T13:43:02.605Z,15.31
2023-04-30T13:45:29.548Z,15.34
2023-04-30T13:47:56.830Z,15.23
2023-04-30T13:50:23.621Z,15.24
2023-04-30T13:52:50.298Z,15.24
2023-04-30T13:55:16.932Z,15.28
2023-04-30T13:57:43.614Z,15.36
2023-04-30T14:00:10.932Z,15.42
2023-04-30T14:02:37.671Z,15.39
2023-04-30T14:05:06.791Z,15.27
2023-04-30T14:07:33.732Z,15.26
2023-04-30T14:10:00.589Z,15.25
2023-04-30T14:12:27.299Z,15.19
2023-04-30T14:14:55.897Z,15.15
2023-04-30T14:17:22.584Z,15.19
2023-04-30T14:19:52.382Z,15.18
2023-04-30T14:22:18.995Z,15.15
2023-04-30T14:24:45.733Z,15.19
2023-04-30T14:27:12.442Z,15.20
2023-04-30T14:29:39.204Z,15.20
2023-04-30T14:32:07.545Z,15.27
2023-04-30T14:34:34.259Z,15.32
2023-04-30T14:37:03.443Z,15.28
2023-04-30T14:39:30.136Z,15.36
2023-04-30T14:41:56.884Z,15.40
2023-04-30T14:44:25.608Z,15.43
2023-04-30T14:46:53.046Z,15.43
2023-04-30T14:49:22.357Z,15.41
2023-04-30T14:51:49.014Z,15.45
2023-04-30T14:54:17.578Z,15.46
2023-04-30T14:56:47.384Z,15.49
2023-04-30T14:59:14.721Z,15.49
2023-04-30T15:01:42.103Z,15.52
2023-04-30T15:04:09.628Z,15.55
2023-04-30T15:06:36.453Z,15.58
2023-04-30T15:09:03.904Z,15.63
2023-04-30T15:11:30.539Z,15.63
2023-04-30T15:13:57.152Z,15.69
2023-04-30T15:16:24.353Z,15.69
2023-04-30T15:18:51.143Z,15.68
2023-04-30T15:21:18.286Z,15.72
2023-04-30T15:23:45.943Z,15.70
2023-04-30T15:26:15.439Z,15.71
2023-04-30T15:28:43.604Z,15.70
2023-04-30T15:31:11.558Z,15.71
2023-04-30T15:33:42.444Z,15.68
2023-04-30T15:36:10.483Z,15.71
2023-04-30T15:38:37.203Z,15.68
2023-04-30T15:41:03.884Z,15.73
2023-04-30T15:43:32.393Z,15.70
2023-04-30T15:45:59.377Z,15.66
2023-04-30T15:48:26.112Z,15.67
2023-04-30T15:50:52.857Z,15.70
2023-04-30T15:53:19.484Z,15.68
2023-04-30T15:55:47.922Z,15.75
2023-04-30T15:58:17.247Z,15.69
2023-04-30T16:00:44.004Z,15.72
2023-04-30T16:03:10.850Z,15.73
2023-04-30T16:05:40.500Z,15.73
2023-04-30T16:08:10.560Z,15.70
2023-04-30T16:10:38.820Z,15.68
2023-04-30T16:13:07.532Z,15.75
2023-04-30T16:15:34.233Z,15.72
2023-04-30T16:18:00.997Z,15.77
2023-04-30T16:20:27.914Z,15.84
2023-04-30T16:22:55.609Z,15.84
2023-04-30T16:25:22.785Z,15.82
2023-04-30T16:27:49.861Z,15.80
2023-04-30T16:30:16.624Z,15.82
2023-04-30T16:32:43.442Z,15.81
2023-04-30T16:35:10.236Z,15.84
2023-04-30T16:37:36.932Z,15.80
2023-04-30T16:40:03.835Z,15.85
2023-04-30T16:42:30.912Z,15.89
2023-04-30T16:44:57.543Z,15.91
2023-04-30T16:47:24.253Z,15.88
2023-04-30T16:49:50.945Z,15.95
2023-04-30T16:52:17.666Z,15.88
2023-04-30T16:54:44.507Z,15.91
2023-04-30T16:57:11.095Z,15.98
2023-04-30T16:59:37.707Z,15.95
2023-04-30T17:02:04.915Z,15.93
2023-04-30T17:04:31.741Z,15.90
2023-04-30T17:06:59.292Z,15.86
2023-04-30T17:09:26.066Z,15.85
2023-04-30T17:11:52.661Z,15.88
2023-04-30T17:14:19.261Z,15.88
2023-04-30T17:16:49.233Z,15.85
2023-04-30T17:19:15.918Z,15.85
2023-04-30T17:21:42.545Z,15.87
2023-04-30T17:24:09.678Z,15.85
2023-04-30T17:26:36.391Z,15.85
2023-04-30T17:29:03.105Z,15.85
2023-04-30T17:31:33.192Z,15.83
2023-04-30T17:34:00.387Z,15.77
2023-04-30T17:36:28.903Z,15.78
2023-04-30T17:38:56.440Z,15.78
2023-04-30T17:41:23.844Z,15.77
2023-04-30T17:43:53.220Z,15.75
2023-04-30T17:46:19.943Z,15.71
2023-04-30T17:48:46.635Z,15.69
2023-04-30T17:51:13.343Z,15.63
2023-04-30T17:53:40.744Z,15.57
2023-04-30T17:56:08.777Z,15.50
2023-04-30T18:01:05.601Z,15.39
2023-04-30T18:03:32.579Z,15.37
2023-04-30T18:05:59.279Z,15.29
2023-04-30T18:08:26.897Z,15.22
2023-04-30T18:10:55.100Z,15.24
2023-04-30T18:13:21.714Z,15.16
2023-04-30T18:15:51.498Z,15.13
2023-04-30T18:18:18.635Z,15.15
2023-04-30T18:20:47.734Z,15.09
2023-04-30T18:23:15.059Z,15.04
2023-04-30T18:25:43.597Z,15.01
2023-04-30T18:28:10.397Z,14.88
2023-04-30T18:30:37.330Z,14.82
2023-04-30T18:33:04.985Z,14.77
2023-04-30T18:35:35.483Z,14.67
2023-04-30T18:38:02.259Z,14.63
2023-04-30T18:40:28.925Z,14.62
2023-04-30T18:42:56.889Z,14.58
2023-04-30T18:45:24.096Z,14.56
2023-04-30T18:47:51.078Z,14.51
2023-04-30T18:50:18.131Z,14.52
2023-04-30T18:52:45.243Z,14.44
2023-04-30T18:55:15.149Z,14.38
2023-04-30T18:57:42.785Z,14.36
2023-04-30T19:00:10.519Z,14.33
2023-04-30T19:02:43.376Z,14.23
2023-04-30T19:05:10.278Z,14.19
2023-04-30T19:07:36.872Z,14.14
2023-04-30T19:10:04.609Z,14.04
2023-04-30T19:12:31.273Z,13.99
2023-04-30T19:14:58.580Z,13.94
2023-04-30T19:17:25.748Z,13.92
2023-04-30T19:19:53.135Z,13.93
2023-04-30T19:22:19.927Z,13.86
2023-04-30T19:24:46.520Z,13.78
2023-04-30T19:27:13.120Z,13.72
2023-04-30T19:29:40.124Z,13.74
2023-04-30T19:32:07.024Z,13.75
2023-04-30T19:34:34.575Z,13.72
2023-04-30T19:37:01.372Z,13.78
2023-04-30T19:39:31.829Z,13.78
2023-04-30T19:41:59.008Z,13.75
2023-04-30T19:44:26.028Z,13.71
2023-04-30T19:46:52.743Z,13.62
2023-04-30T19:49:19.364Z,13.55
2023-04-30T19:51:46.180Z,13.53
2023-04-30T19:54:14.497Z,13.56
2023-04-30T19:56:44.825Z,13.52
2023-04-30T19:59:12.104Z,13.46
2023-04-30T20:01:39.196Z,13.44
2023-04-30T20:04:06.866Z,13.40
2023-04-30T20:06:33.774Z,13.33
2023-04-30T20:09:01.527Z,13.34
2023-04-30T20:11:28.117Z,13.34
2023-04-30T20:13:56.393Z,13.34
2023-04-30T20:16:23.313Z,13.33
2023-04-30T20:18:52.979Z,13.28
2023-04-30T20:21:20.745Z,13.26
2023-04-30T20:23:47.483Z,13.22
2023-04-30T20:26:14.104Z,13.19
2023-04-30T20:28:40.802Z,13.18
2023-04-30T20:31:09.735Z,13.20
2023-04-30T20:33:36.489Z,13.19
2023-04-30T20:36:03.304Z,13.12
2023-04-30T20:38:30.078Z,13.06
2023-04-30T20:40:59.750Z,12.99
2023-04-30T20:43:26.844Z,12.99
2023-04-30T20:45:57.177Z,12.90
2023-04-30T20:48:24.011Z,12.87
2023-04-30T20:50:50.712Z,12.84
2023-04-30T20:53:18.514Z,12.84
2023-04-30T20:55:45.091Z,12.82
2023-04-30T20:58:12.078Z,12.77
2023-04-30T21:00:38.716Z,12.76
2023-04-30T21:03:05.981Z,12.74
2023-04-30T21:05:32.937Z,12.74
2023-04-30T21:08:01.680Z,12.70
2023-04-30T21:10:36.094Z,12.68
2023-04-30T21:13:08.974Z,12.67
2023-04-30T21:15:36.385Z,12.59
2023-04-30T21:18:03.697Z,12.59
2023-04-30T21:20:32.182Z,12.59
2023-04-30T21:22:58.965Z,12.55
2023-04-30T21:25:25.659Z,12.48
2023-04-30T21:27:52.411Z,12.44
2023-04-30T21:30:19.239Z,12.44
2023-04-30T21:32:49.333Z,12.41
2023-04-30T21:35:16.177Z,12.37
2023-04-30T21:37:42.860Z,12.42
2023-04-30T21:40:09.950Z,12.33
2023-04-30T21:42:36.728Z,12.31
2023-04-30T21:45:03.561Z,12.37
2023-04-30T21:47:30.791Z,12.34
2023-04-30T21:49:58.832Z,12.29
2023-04-30T21:52:25.879Z,12.25
2023-04-30T21:54:52.554Z,12.24
2023-04-30T21:57:19.560Z,12.16
2023-04-30T21:59:46.255Z,12.08
2023-04-30T22:02:22.606Z,11.99
2023-04-30T22:04:49.837Z,11.95
2023-04-30T22:07:18.598Z,11.90
2023-04-30T22:09:45.409Z,11.89
2023-04-30T22:12:12.303Z,11.90
2023-04-30T22:14:39.258Z,11.87
2023-04-30T22:17:06.186Z,11.78
2023-04-30T22:19:32.856Z,11.71
2023-04-30T22:21:59.499Z,11.65
2023-04-30T22:24:26.102Z,11.66
2023-04-30T22:26:52.763Z,11.64
2023-04-30T22:29:19.827Z,11.55
2023-04-30T22:31:46.669Z,11.49
2023-04-30T22:34:15.588Z,11.46
2023-04-30T22:36:43.648Z,11.42
2023-04-30T22:39:11.902Z,11.38
2023-04-30T22:41:38.884Z,11.38
2023-04-30T22:44:05.616Z,11.36
2023-04-30T22:46:36.692Z,11.37
2023-04-30T22:49:03.756Z,11.30
2023-04-30T22:51:31.693Z,11.35
2023-04-30T22:53:58.395Z,11.26
2023-04-30T22:56:25.029Z,11.24
2023-04-30T22:58:51.715Z,11.18
2023-04-30T23:01:18.470Z,11.15
2023-04-30T23:03:45.186Z,11.22
2023-04-30T23:06:12.010Z,11.19
2023-04-30T23:08:38.666Z,11.14
2023-04-30T23:11:05.797Z,11.11
2023-04-30T23:13:32.713Z,11.06
2023-04-30T23:16:00.443Z,10.98
2023-04-30T23:18:27.722Z,10.93
2023-04-30T23:21:01.294Z,10.87
2023-04-30T23:23:28.161Z,10.81
2023-04-30T23:25:55.457Z,10.69
2023-04-30T23:28:24.608Z,10.66
2023-04-30T23:30:54.799Z,10.63
2023-04-30T23:33:21.808Z,10.60
2023-04-30T23:35:49.142Z,10.57
2023-04-30T23:38:16.344Z,10.50
2023-04-30T23:40:43.355Z,10.41
2023-04-30T23:43:10.616Z,10.29
2023-04-30T23:45:41.509Z,10.27
2023-04-30T23:48:09.253Z,10.22
2023-04-30T23:50:36.181Z,10.16
2023-04-30T23:53:02.784Z,10.17
2023-04-30T23:55:29.402Z,10.10
2023-04-30T23:57:55.966Z,10.07
